createdAt,value
2023-01-07T00:08:03.417Z,981.05
2023-01-07T00:18:36.207Z,980.95
2023-01-07T00:29:08.696Z,980.92
2023-01-07T00:40:04.804Z,980.84
2023-01-07T00:50:49.813Z,980.77
2023-01-07T01:01:20.518Z,980.71
2023-01-07T01:12:04.702Z,980.62
2023-01-07T01:22:49.704Z,980.49
2023-01-07T01:33:28.267Z,980.35
2023-01-07T01:44:16.893Z,980.31
2023-01-07T01:55:33.613Z,980.24
2023-01-07T02:06:32.893Z,980.2
2023-01-07T02:17:42.570Z,980.12
2023-01-07T02:28:59.955Z,979.87
2023-01-07T02:40:23.029Z,979.85
2023-01-07T02:51:37.069Z,979.86
2023-01-07T03:02:52.792Z,979.71
2023-01-07T03:14:08.759Z,979.59
2023-01-07T03:25:20.090Z,979.53
2023-01-07T03:36:12.597Z,979.38
2023-01-07T03:46:52.710Z,979.25
2023-01-07T03:57:19.198Z,979.22
2023-01-07T04:07:39.314Z,979.13
2023-01-07T04:18:01.054Z,979.09
2023-01-07T04:28:25.073Z,978.87
2023-01-07T04:38:56.809Z,978.72
2023-01-07T04:49:25.485Z,978.62
2023-01-07T04:59:54.838Z,978.55
2023-01-07T05:10:18.698Z,978.43
2023-01-07T05:21:02.725Z,978.31
2023-01-07T05:31:36.122Z,978.17
2023-01-07T05:42:12.082Z,978.15
2023-01-07T05:52:53.729Z,978.08
2023-01-07T06:03:32.526Z,978.01
2023-01-07T06:14:12.795Z,977.88
2023-01-07T06:24:52.101Z,977.84
2023-01-07T06:35:33.367Z,977.67
2023-01-07T06:46:14.436Z,977.55
2023-01-07T06:56:56.441Z,977.4
2023-01-07T07:07:34.763Z,977.33
2023-01-07T07:18:14.149Z,977.33
2023-01-07T07:28:47.249Z,977.2
2023-01-07T07:39:17.904Z,977.09
2023-01-07T07:49:52.736Z,977
2023-01-07T08:00:23.726Z,976.89
2023-01-07T08:10:35.134Z,976.73
2023-01-07T08:20:06.015Z,976.71
2023-01-07T08:29:34.405Z,976.58
2023-01-07T08:39:06.368Z,976.48
2023-01-07T08:48:41.188Z,976.39
2023-01-07T08:58:07.175Z,976.28
2023-01-07T09:07:37.006Z,976.14
2023-01-07T09:17:03.192Z,976.02
2023-01-07T09:26:28.588Z,975.93
2023-01-07T09:35:53.627Z,975.77
2023-01-07T09:45:38.198Z,975.71
2023-01-07T09:55:29.011Z,975.64
2023-01-07T10:05:19.666Z,975.59
2023-01-07T10:15:32.708Z,975.59
2023-01-07T10:25:44.805Z,975.43
2023-01-07T10:35:41.117Z,975.34
2023-01-07T10:45:45.422Z,975.15
2023-01-07T10:55:55.242Z,974.96
2023-01-07T11:05:48.955Z,974.79
2023-01-07T11:15:35.217Z,974.62
2023-01-07T11:25:27.271Z,974.47
2023-01-07T11:35:24.063Z,974.37
2023-01-07T11:45:13.091Z,974.11
2023-01-07T11:55:10.789Z,973.91
2023-01-07T12:05:12.069Z,973.75
2023-01-07T12:15:19.242Z,973.57
2023-01-07T12:25:29.894Z,973.43
2023-01-07T12:35:24.349Z,973.35
2023-01-07T12:45:21.015Z,973.27
2023-01-07T12:55:22.801Z,973.21
2023-01-07T13:05:25.868Z,973.1
2023-01-07T13:15:41.998Z,973
2023-01-07T13:25:17.912Z,972.99
2023-01-07T13:35:10.914Z,972.9
2023-01-07T13:45:12.969Z,972.84
2023-01-07T13:55:05.369Z,972.67
2023-01-07T14:05:04.082Z,972.56
2023-01-07T14:14:52.558Z,972.58
2023-01-07T14:24:59.749Z,972.55
2023-01-07T14:35:09.397Z,972.57
2023-01-07T14:45:12.473Z,972.59
2023-01-07T14:55:14.187Z,972.6
2023-01-07T15:05:18.245Z,972.49
2023-01-07T15:15:18.150Z,972.42
2023-01-07T15:25:07.015Z,972.38
2023-01-07T15:35:23.549Z,972.15
2023-01-07T15:45:27.159Z,972.05
2023-01-07T15:55:19.966Z,971.96
2023-01-07T16:05:18.124Z,971.84
2023-01-07T16:15:17.384Z,971.69
2023-01-07T16:25:01.976Z,971.6
2023-01-07T16:34:44.643Z,971.66
2023-01-07T16:44:32.856Z,971.67
2023-01-07T16:54:20.716Z,971.67
2023-01-07T17:04:09.067Z,971.6
2023-01-07T17:14:10.386Z,971.59
2023-01-07T17:24:11.012Z,971.52
2023-01-07T17:34:01.976Z,971.49
2023-01-07T17:43:34.586Z,971.41
2023-01-07T17:53:05.329Z,971.37
2023-01-07T18:02:48.711Z,971.22
2023-01-07T18:12:22.176Z,971.17
2023-01-07T18:21:54.202Z,971.1
2023-01-07T18:31:23.389Z,970.99
2023-01-07T18:40:50.152Z,970.95
2023-01-07T18:50:19.639Z,970.97
2023-01-07T18:59:50.060Z,970.9
2023-01-07T19:09:17.881Z,970.79
2023-01-07T19:18:43.048Z,970.83
2023-01-07T19:28:09.586Z,970.9
2023-01-07T19:37:38.373Z,970.88
2023-01-07T19:47:12.145Z,970.76
2023-01-07T19:56:39.474Z,970.9
2023-01-07T20:06:05.088Z,970.93
2023-01-07T20:15:41.208Z,970.92
2023-01-07T20:25:09.338Z,970.85
2023-01-07T20:34:42.095Z,970.69
2023-01-07T20:44:05.992Z,970.82
2023-01-07T20:53:33.549Z,970.85
2023-01-07T21:03:02.565Z,970.73
2023-01-07T21:12:32.976Z,970.59
2023-01-07T21:21:53.042Z,970.56
2023-01-07T21:31:17.531Z,970.54
2023-01-07T21:40:50.145Z,970.45
2023-01-07T21:50:12.826Z,970.37
2023-01-07T21:59:41.388Z,970.41
2023-01-07T22:09:10.787Z,970.44
2023-01-07T22:18:42.388Z,970.39
2023-01-07T22:28:05.134Z,970.31
2023-01-07T22:37:29.160Z,970.36
2023-01-07T22:47:12.407Z,970.4
2023-01-07T22:56:48.177Z,970.21
2023-01-07T23:06:14.371Z,970.01
2023-01-07T23:15:37.025Z,969.89
2023-01-07T23:25:01.673Z,969.82
2023-01-07T23:34:32.280Z,969.66
2023-01-07T23:43:58.190Z,969.48
2023-01-07T23:53:23.621Z,969.39
